Albany International Airport Albany US
ICAO: KALB
IATA: ALB
Category: Medium
Scheduled Services: Yes

Elevation: 285 ft
TransAlt. 18000 ft.

Airport Communications:
APP/DEP:118.05
ATIS:120.45
CLNC DEL:127.5
GND:121.7
ARNG OPS:41
BURLINGTON RDO:122.2
TWR:119.5
UNICOM:122.95

KALB Zoom In..

Runways:

(A) RW 01 length 8500 ft width 150 ft
ILS 109.50 / hdg 11

(B) RW 10 length 7200 ft width 150 ft
---- / hdg 101

(C) RW 19 length 8500 ft width 150 ft
ILS 109.50 / hdg 191

(D) RW 28 length 7200 ft width 150 ft
---- / hdg 281

Location; KALB
Day. 21 / Time. 05.51 Zulu
* Altimeter: 30.10
* Temperature: 21° c. 69.8°f.
* Wind from: 160° Speed 06 kn.
Dewpoint: 12° c.
Visibility: 10 Statute Miles.
Clouds: Few 25000 ft.

KALB 210551Z 16006KT 10SM FEW250 21/12 A3010 RMK AO2 SLP193 T02110122 10278 20211 53001


Wind From 160°
Speed 06 kn.

 
 
jpsmedia.com for Web Design worldairports.se 2018   terms of use